Time;durP1;ratioP1;P1;durP2;ratioP2;P2;SDS_P1;SDS_P2;PMS_P1;PMS_P2;Temp;Humidity;BMP_temperature;BMP_pressure;BME280_temperature;BME280_humidity;BME280_pressure;Samples;Min_cycle;Max_cycle;Signal;HPM_P1;HPM_P2
2021/01/12 00:01:28;;;;;;;68.55;29.65;;;;;;;-0.98;83.72;100065.91;3515871;28;20063;-52
2021/01/12 00:03:10;;;;;;;82.20;33.67;;;;;;;-0.97;83.73;100067.69;3518950;28;20127;-50
2021/01/12 00:04:52;;;;;;;75.75;33.05;;;;;;;-0.99;83.87;100072.69;3515468;28;20459;-53
2021/01/12 00:06:35;;;;;;;72.45;31.85;;;;;;;-0.98;84.14;100073.56;3519175;28;20428;-52
2021/01/12 00:08:16;;;;;;;79.85;34.92;;;;;;;-0.98;84.25;100073.56;3517539;28;20062;-52
2021/01/12 00:09:58;;;;;;;82.00;33.45;;;;;;;-0.98;84.22;100073.56;3518271;28;20097;-49
2021/01/12 00:11:39;;;;;;;72.70;31.98;;;;;;;-0.97;84.13;100070.25;3512094;28;20079;-49
2021/01/12 00:13:23;;;;;;;64.68;28.52;;;;;;;-0.96;84.29;100069.44;3516479;28;20078;-52
2021/01/12 00:15:06;;;;;;;64.57;28.60;;;;;;;-0.95;84.04;100071.22;3518090;28;20139;-50
2021/01/12 00:16:48;;;;;;;62.80;28.73;;;;;;;-0.96;84.20;100072.91;3511755;28;20229;-52
2021/01/12 00:18:30;;;;;;;62.40;27.45;;;;;;;-0.95;83.95;100076.31;3512568;28;20052;-50
2021/01/12 00:20:12;;;;;;;60.97;27.65;;;;;;;-0.96;83.90;100072.00;3513119;28;20050;-53
2021/01/12 00:21:54;;;;;;;61.97;27.05;;;;;;;-0.96;84.17;100078.00;3512923;28;20383;-51
2021/01/12 00:23:35;;;;;;;57.33;26.88;;;;;;;-0.97;84.19;100076.22;3513643;28;20040;-49
2021/01/12 00:25:17;;;;;;;64.68;29.38;;;;;;;-0.97;84.61;100073.66;3515197;28;20079;-50
2021/01/12 00:27:10;;;;;;;64.72;27.55;;;;;;;-0.96;84.56;100072.91;3515540;28;20059;-53
2021/01/12 00:28:53;;;;;;;65.30;26.25;;;;;;;-0.94;84.46;100078.06;3515175;28;20507;-49
2021/01/12 00:30:35;;;;;;;55.70;26.08;;;;;;;-0.94;84.29;100068.78;3514161;28;20110;-49
2021/01/12 00:32:18;;;;;;;55.08;26.33;;;;;;;-0.93;84.53;100069.66;3515451;28;20058;-46
2021/01/12 00:33:59;;;;;;;57.75;26.38;;;;;;;-0.92;84.52;100079.94;3514248;28;20783;-45
2021/01/12 00:35:41;;;;;;;55.40;25.52;;;;;;;-0.91;84.47;100076.63;3513681;28;20083;-45
2021/01/12 00:37:25;;;;;;;63.58;27.90;;;;;;;-0.91;84.50;100066.44;3514954;28;20138;-46
2021/01/12 00:39:06;;;;;;;56.85;26.65;;;;;;;-0.90;84.61;100074.97;3514421;28;20100;-46
2021/01/12 00:40:48;;;;;;;61.30;25.60;;;;;;;-0.90;84.23;100072.41;3514616;28;20055;-45
2021/01/12 00:42:30;;;;;;;55.88;25.52;;;;;;;-0.89;84.03;100068.19;3515142;28;20090;-44
2021/01/12 00:44:13;;;;;;;54.75;25.52;;;;;;;-0.89;84.25;100065.66;3515653;28;20055;-45
2021/01/12 00:45:55;;;;;;;56.92;25.88;;;;;;;-0.90;84.58;100062.22;3514812;28;20048;-45
2021/01/12 00:47:37;;;;;;;55.33;25.30;;;;;;;-0.90;84.42;100069.88;3513767;28;20055;-44
2021/01/12 00:49:20;;;;;;;52.95;25.10;;;;;;;-0.91;84.42;100063.00;3516992;28;20055;-45
2021/01/12 00:51:02;;;;;;;52.38;23.48;;;;;;;-0.92;84.23;100062.13;3516122;28;20051;-46
2021/01/12 00:52:43;;;;;;;53.97;25.33;;;;;;;-0.92;84.26;100062.13;3516492;28;20043;-45
2021/01/12 00:54:25;;;;;;;54.03;24.52;;;;;;;-0.92;84.59;100063.78;3515926;28;20047;-46
2021/01/12 00:56:13;;;;;;;52.40;24.23;;;;;;;-0.94;84.59;100071.31;3513944;28;20072;-47
2021/01/12 00:57:55;;;;;;;55.15;25.23;;;;;;;-0.94;84.71;100066.25;3515112;28;20047;-46
2021/01/12 00:59:37;;;;;;;60.55;24.88;;;;;;;-0.94;84.60;100063.69;3522200;28;20473;-45
2021/01/12 01:01:18;;;;;;;52.13;24.23;;;;;;;-0.92;85.08;100061.25;3520958;28;20079;-45
2021/01/12 01:03:00;;;;;;;50.20;23.73;;;;;;;-0.92;85.04;100064.66;3523618;28;20051;-45
2021/01/12 01:04:42;;;;;;;50.88;23.08;;;;;;;-0.92;84.60;100063.78;3520506;28;20134;-46
2021/01/12 01:06:24;;;;;;;51.45;23.88;;;;;;;-0.93;84.74;100062.00;3522039;28;20561;-46
2021/01/12 01:08:06;;;;;;;51.00;23.35;;;;;;;-0.95;84.58;100063.59;3524505;28;20047;-46
2021/01/12 01:09:47;;;;;;;55.25;24.33;;;;;;;-0.95;84.67;100068.69;3511401;28;20116;-45
2021/01/12 01:11:29;;;;;;;56.58;23.73;;;;;;;-0.96;84.68;100061.81;3512552;28;20067;-45
2021/01/12 01:13:11;;;;;;;54.03;24.52;;;;;;;-0.97;84.75;100057.50;3524080;28;20052;-45
2021/01/12 01:14:53;;;;;;;59.75;27.08;;;;;;;-0.97;84.41;100063.47;3520290;28;20051;-45
2021/01/12 01:16:35;;;;;;;51.65;23.40;;;;;;;-0.96;84.52;100061.81;3520132;28;20130;-45
2021/01/12 01:18:17;;;;;;;59.80;24.55;;;;;;;-0.96;84.26;100062.72;3523832;28;20071;-44
2021/01/12 01:19:59;;;;;;;52.53;23.85;;;;;;;-0.96;84.50;100065.25;3521942;28;20100;-46
2021/01/12 01:21:40;;;;;;;50.50;23.52;;;;;;;-0.96;84.61;100062.72;3521658;28;20048;-44
2021/01/12 01:23:22;;;;;;;51.92;23.52;;;;;;;-0.96;84.52;100069.44;3523524;28;20138;-46
2021/01/12 01:25:05;;;;;;;56.63;24.98;;;;;;;-0.96;84.69;100072.91;3521868;28;20062;-45
2021/01/12 01:26:48;;;;;;;47.22;20.50;;;;;;;-0.97;84.30;100065.16;3523492;28;20084;-45
2021/01/12 01:28:30;;;;;;;53.08;20.63;;;;;;;-0.97;84.49;100070.25;3520939;28;20050;-45
2021/01/12 01:30:14;;;;;;;52.75;24.42;;;;;;;-0.99;84.54;100062.50;3520784;28;20063;-45
2021/01/12 01:31:56;;;;;;;57.75;24.17;;;;;;;-0.99;84.94;100064.19;3522358;28;20048;-45
2021/01/12 01:33:38;;;;;;;59.50;24.73;;;;;;;-0.99;84.80;100064.19;3519118;28;20105;-46
2021/01/12 01:35:20;;;;;;;54.92;25.60;;;;;;;-1.01;84.95;100061.53;3522740;28;20048;-45
2021/01/12 01:37:10;;;;;;;46.00;22.63;;;;;;;-1.01;85.05;100063.16;3509941;28;20055;-45
2021/01/12 01:38:52;;;;;;;58.83;25.67;;;;;;;-1.00;85.04;100063.28;3510370;28;20048;-45
2021/01/12 01:40:33;;;;;;;51.60;23.20;;;;;;;-1.02;84.91;100059.75;3511343;28;20527;-47
2021/01/12 01:42:15;;;;;;;54.80;24.92;;;;;;;-1.03;84.49;100058.00;3524200;28;20047;-44
2021/01/12 01:43:57;;;;;;;46.15;21.45;;;;;;;-1.03;83.86;100059.63;3521812;28;20054;-44
2021/01/12 01:45:39;;;;;;;38.70;18.58;;;;;;;-1.05;81.85;100056.13;3522194;28;20405;-46
2021/01/12 01:47:21;;;;;;;33.85;16.58;;;;;;;-1.05;81.14;100058.66;3523858;28;20051;-44
2021/01/12 01:49:02;;;;;;;33.63;15.52;;;;;;;-1.04;80.63;100061.31;3514920;28;20044;-45
2021/01/12 01:50:45;;;;;;;32.22;15.88;;;;;;;-1.04;80.19;100058.78;3510552;28;20048;-44
2021/01/12 01:52:28;;;;;;;35.25;15.75;;;;;;;-1.03;80.29;100058.00;3521594;28;20270;-45
2021/01/12 01:54:12;;;;;;;37.97;16.47;;;;;;;-1.02;79.75;100053.78;3520499;28;20079;-46
2021/01/12 01:55:59;;;;;;;34.85;15.18;;;;;;;-1.02;79.79;100058.88;3523640;28;20312;-48
2021/01/12 01:57:40;;;;;;;36.10;16.55;;;;;;;-1.00;79.57;100059.84;3520521;28;20050;-46
2021/01/12 01:59:23;;;;;;;35.42;15.85;;;;;;;-1.00;79.39;100053.09;3521637;28;20783;-44
2021/01/12 02:01:06;;;;;;;34.40;15.48;;;;;;;-0.99;79.48;100054.88;3523654;28;20043;-45
2021/01/12 02:02:55;;;;;;;34.83;15.02;;;;;;;-0.99;79.30;100054.88;3518461;28;20508;-45
2021/01/12 02:04:40;;;;;;;27.65;13.65;;;;;;;-0.99;79.03;100052.31;3520552;28;20056;-46
2021/01/12 02:06:27;;;;;;;29.65;15.48;;;;;;;-0.99;78.84;100049.78;3523712;28;20051;-45
2021/01/12 02:08:13;;;;;;;30.05;13.98;;;;;;;-0.99;78.69;100044.69;3520495;28;20432;-44
2021/01/12 02:09:58;;;;;;;31.27;15.13;;;;;;;-0.98;78.11;100041.34;3520444;28;20444;-46
2021/01/12 02:11:41;;;;;;;28.20;13.77;;;;;;;-0.98;77.84;100046.44;3509888;28;20052;-45
2021/01/12 02:13:25;;;;;;;28.95;14.38;;;;;;;-0.98;77.37;100043.88;3518291;28;20088;-45
2021/01/12 02:15:10;;;;;;;28.73;12.77;;;;;;;-0.96;77.13;100039.78;3519927;28;20055;-45
2021/01/12 02:16:54;;;;;;;27.88;13.85;;;;;;;-0.95;76.80;100040.66;3522982;28;20047;-46
2021/01/12 02:18:37;;;;;;;26.73;13.02;;;;;;;-0.95;76.71;100040.66;3518773;28;20500;-45
2021/01/12 02:20:21;;;;;;;26.25;12.18;;;;;;;-0.94;76.92;100033.13;3523227;28;20520;-45
2021/01/12 02:22:05;;;;;;;21.73;10.43;;;;;;;-0.93;76.96;100031.47;3521839;28;20474;-45
2021/01/12 02:23:51;;;;;;;;;;;;;;;-0.92;76.23;100028.16;3516278;28;20052;-46
2021/01/12 02:25:35;;;;;;;32.15;14.52;;;;;;;-0.91;76.46;100029.88;3508333;28;19974;-46
2021/01/12 02:27:20;;;;;;;32.53;15.30;;;;;;;-0.90;76.39;100026.56;3521942;28;20052;-44
2021/01/12 02:29:02;;;;;;;28.48;14.13;;;;;;;-0.90;76.60;100026.56;3519961;28;20100;-45
2021/01/12 02:30:44;;;;;;;36.35;16.10;;;;;;;-0.92;76.15;100026.47;3521891;28;20051;-46
2021/01/12 02:32:26;;;;;;;35.63;16.88;;;;;;;-0.90;76.46;100026.56;3519496;28;20495;-46
2021/01/12 02:34:13;;;;;;;28.00;14.38;;;;;;;-0.92;76.04;100021.38;3521472;28;20493;-53
2021/01/12 02:35:58;;;;;;;26.27;13.13;;;;;;;-0.92;76.02;100018.84;3508687;28;20052;-49
2021/01/12 02:37:39;;;;;;;27.85;14.20;;;;;;;-0.92;76.38;100016.28;3518697;28;20056;-50
2021/01/12 02:39:22;;;;;;;26.67;12.77;;;;;;;-0.91;75.81;100023.16;3520094;28;20051;-53
2021/01/12 02:41:09;;;;;;;23.15;11.85;;;;;;;-0.90;75.73;100013.84;3523357;28;20043;-52
2021/01/12 02:42:51;;;;;;;32.13;14.23;;;;;;;-0.89;75.69;100007.94;3520116;28;20044;-46
2021/01/12 02:44:33;;;;;;;29.83;14.13;;;;;;;-0.88;75.46;100001.22;3520576;28;20051;-46
2021/01/12 02:46:15;;;;;;;29.92;14.15;;;;;;;-0.88;75.44;100003.75;3523521;28;20093;-44
2021/01/12 02:47:58;;;;;;;28.30;13.45;;;;;;;-0.89;76.09;99997.75;3522470;28;20062;-45
2021/01/12 02:49:39;;;;;;;29.23;14.15;;;;;;;-0.87;76.78;100000.41;3525400;28;20047;-45
2021/01/12 02:51:21;;;;;;;24.98;12.75;;;;;;;-0.88;76.96;99997.00;3521955;28;20055;-45
2021/01/12 02:53:02;;;;;;;30.80;14.75;;;;;;;-0.87;77.03;100000.41;3522199;28;20072;-45
2021/01/12 02:54:45;;;;;;;31.77;14.13;;;;;;;-0.88;76.84;99996.13;3525654;28;20404;-46
2021/01/12 02:56:26;;;;;;;31.75;13.98;;;;;;;-0.87;77.20;100001.31;3523759;28;20085;-45
2021/01/12 02:58:08;;;;;;;32.70;15.50;;;;;;;-0.88;77.14;99996.13;3521927;28;20055;-52
2021/01/12 02:59:49;;;;;;;28.83;14.13;;;;;;;-0.89;77.47;100000.31;3525260;28;20457;-50
2021/01/12 03:01:31;;;;;;;30.45;14.63;;;;;;;-0.89;77.37;99995.22;3522307;28;20048;-52
2021/01/12 03:03:13;;;;;;;32.10;15.15;;;;;;;-0.89;77.14;99991.78;3525042;28;20062;-51
2021/01/12 03:04:55;;;;;;;34.20;15.18;;;;;;;-0.89;77.46;99999.44;3522598;28;20078;-49
2021/01/12 03:06:36;;;;;;;32.47;14.63;;;;;;;-0.89;77.78;99994.34;3523476;28;20065;-50
2021/01/12 03:08:18;;;;;;;31.45;14.90;;;;;;;-0.91;77.97;99991.69;3525037;28;20060;-53
2021/01/12 03:10:01;;;;;;;26.17;13.05;;;;;;;-0.91;77.63;99991.69;3522032;28;20048;-51
2021/01/12 03:11:42;;;;;;;29.40;14.23;;;;;;;-0.92;77.31;99987.41;3520796;28;20569;-51
2021/01/12 03:13:24;;;;;;;34.78;15.30;;;;;;;-0.92;77.13;99985.72;3525532;28;20051;-53
2021/01/12 03:15:07;;;;;;;32.30;13.85;;;;;;;-0.92;77.44;99983.19;3523221;28;20092;-50
2021/01/12 03:16:51;;;;;;;31.98;14.70;;;;;;;-0.92;77.41;99987.41;3525568;28;20047;-46
2021/01/12 03:18:33;;;;;;;33.20;15.20;;;;;;;-0.93;77.69;99981.41;3523658;28;20083;-45
2021/01/12 03:20:15;;;;;;;30.90;13.98;;;;;;;-0.94;77.52;99979.66;3522632;28;20049;-45
2021/01/12 03:21:56;;;;;;;25.77;13.63;;;;;;;-0.92;77.46;99982.31;3524967;28;20397;-46
2021/01/12 03:23:38;;;;;;;30.60;14.80;;;;;;;-0.93;77.16;99978.00;3520830;28;20078;-48
2021/01/12 03:25:23;;;;;;;30.85;14.55;;;;;;;-0.93;77.17;99978.00;3522807;28;20079;-45
2021/01/12 03:27:06;;;;;;;29.40;14.07;;;;;;;-0.93;77.11;99975.44;3525336;28;20116;-44
2021/01/12 03:28:48;;;;;;;30.05;13.93;;;;;;;-0.94;76.72;99976.22;3521764;28;20059;-46
2021/01/12 03:30:30;;;;;;;28.67;14.30;;;;;;;-0.94;76.26;99972.03;3520437;28;20052;-45
2021/01/12 03:32:11;;;;;;;28.52;13.60;;;;;;;-0.95;76.37;99975.34;3524410;28;20104;-45
2021/01/12 03:33:53;;;;;;;28.35;13.80;;;;;;;-0.94;76.54;99976.22;3521389;28;20079;-44
2021/01/12 03:35:35;;;;;;;28.42;13.18;;;;;;;-0.94;76.46;99976.22;3524119;28;20051;-46
2021/01/12 03:37:17;;;;;;;26.88;12.30;;;;;;;-0.93;76.55;99967.81;3521811;28;20048;-45
2021/01/12 03:38:58;;;;;;;27.70;13.40;;;;;;;-0.94;76.28;99959.28;3520332;28;20044;-45
2021/01/12 03:40:41;;;;;;;28.10;13.35;;;;;;;-0.93;75.68;99961.03;3524613;28;20077;-51
2021/01/12 03:42:23;;;;;;;27.20;13.63;;;;;;;-0.95;75.19;99962.59;3520919;28;20043;-53
2021/01/12 03:44:05;;;;;;;32.90;14.60;;;;;;;-0.94;75.30;99959.28;3522899;28;20039;-53
2021/01/12 03:45:46;;;;;;;31.75;14.90;;;;;;;-0.94;75.99;99964.38;3523447;28;20059;-51
2021/01/12 03:47:28;;;;;;;26.42;12.38;;;;;;;-0.95;76.46;99951.53;3521196;28;20059;-52
2021/01/12 03:49:10;;;;;;;28.85;13.68;;;;;;;-0.95;76.32;99949.00;3524081;28;20052;-49
2021/01/12 03:50:51;;;;;;;29.88;13.82;;;;;;;-0.96;76.21;99945.59;3521739;28;20067;-52
2021/01/12 03:52:33;;;;;;;30.83;13.93;;;;;;;-0.96;76.55;99950.69;3519587;28;20393;-50
2021/01/12 03:54:14;;;;;;;32.08;15.10;;;;;;;-0.96;76.40;99952.31;3524213;28;20052;-50
2021/01/12 03:55:56;;;;;;;34.15;15.75;;;;;;;-0.97;76.07;99948.03;3522211;28;20047;-51
2021/01/12 03:57:38;;;;;;;35.58;16.05;;;;;;;-0.98;75.74;99948.78;3519816;28;20105;-52
2021/01/12 03:59:20;;;;;;;31.23;14.68;;;;;;;-0.98;76.03;99943.72;3524990;28;20051;-49
2021/01/12 04:01:01;;;;;;;25.55;13.48;;;;;;;-0.98;76.03;99941.16;3522501;28;20051;-51
2021/01/12 04:02:43;;;;;;;33.90;14.57;;;;;;;-0.99;75.82;99942.84;3523408;28;20304;-45
2021/01/12 04:04:25;;;;;;;25.77;12.55;;;;;;;-0.99;76.14;99944.50;3522279;28;20059;-46
2021/01/12 04:06:13;;;;;;;29.55;14.27;;;;;;;-1.00;76.31;99943.59;3519349;28;20491;-46
2021/01/12 04:07:55;;;;;;;28.83;14.00;;;;;;;-1.01;76.24;99936.78;3524718;28;20520;-48
2021/01/12 04:09:39;;;;;;;29.58;14.52;;;;;;;-1.02;76.44;99937.53;3521318;28;20048;-45
2021/01/12 04:11:21;;;;;;;28.85;14.00;;;;;;;-1.02;76.70;99932.44;3521669;28;20469;-50
2021/01/12 04:13:03;;;;;;;28.17;13.02;;;;;;;-1.03;77.17;99935.78;3524650;28;20086;-49
2021/01/12 04:14:45;;;;;;;31.45;15.07;;;;;;;-1.03;76.82;99933.25;3521246;28;20463;-50
2021/01/12 04:16:26;;;;;;;29.58;13.48;;;;;;;-1.03;76.92;99935.78;3522581;28;20059;-45
2021/01/12 04:18:09;;;;;;;34.50;14.15;;;;;;;-1.03;77.32;99927.25;3524048;28;20539;-45
2021/01/12 04:19:51;;;;;;;26.88;13.25;;;;;;;-1.05;77.53;99924.59;3521548;28;20416;-49
2021/01/12 04:21:33;;;;;;;33.03;15.95;;;;;;;-1.04;77.79;99930.59;3524319;28;20351;-45
2021/01/12 04:23:15;;;;;;;31.08;14.70;;;;;;;-1.03;78.17;99932.34;3521947;28;20054;-46
2021/01/12 04:24:56;;;;;;;30.10;14.93;;;;;;;-1.04;79.07;99931.47;3522343;28;20043;-46
2021/01/12 04:26:39;;;;;;;33.15;15.02;;;;;;;-1.03;79.33;99932.34;3524637;28;20051;-45
2021/01/12 04:28:21;;;;;;;33.85;16.95;;;;;;;-1.04;80.18;99931.47;3521043;28;20039;-45
2021/01/12 04:30:03;;;;;;;35.97;16.45;;;;;;;-1.04;80.32;99928.06;3520931;28;20047;-45
2021/01/12 04:31:45;;;;;;;47.00;17.02;;;;;;;-1.05;80.87;99931.38;3522987;28;20052;-46
2021/01/12 04:33:27;;;;;;;31.98;15.38;;;;;;;-1.05;81.33;99926.28;3521304;28;20287;-45
2021/01/12 04:35:09;;;;;;;36.35;16.52;;;;;;;-1.06;81.74;99932.16;3522679;28;20048;-49
2021/01/12 04:36:51;;;;;;;32.03;16.05;;;;;;;-1.06;81.58;99925.41;3509958;28;20101;-51
2021/01/12 04:38:33;;;;;;;31.35;14.77;;;;;;;-1.06;82.20;99933.03;3521171;28;20044;-52
2021/01/12 04:40:14;;;;;;;37.75;17.65;;;;;;;-1.05;82.39;99929.69;3524060;28;20660;-52
2021/01/12 04:41:57;;;;;;;41.05;18.67;;;;;;;-1.06;82.59;99933.03;3522486;28;20047;-52
2021/01/12 04:43:38;;;;;;;39.92;18.00;;;;;;;-1.06;82.58;99929.63;3521108;28;20549;-51
2021/01/12 04:45:20;;;;;;;35.40;16.55;;;;;;;-1.06;82.88;99927.09;3524426;28;20075;-49
2021/01/12 04:47:05;;;;;;;35.28;17.40;;;;;;;-1.06;83.42;99927.09;3520943;28;20404;-48
2021/01/12 04:48:49;;;;;;;37.50;16.40;;;;;;;-1.06;83.47;99934.72;3520904;28;20571;-50
2021/01/12 04:50:30;;;;;;;37.85;17.60;;;;;;;-1.07;83.60;99928.72;3524865;28;20070;-49
2021/01/12 04:52:12;;;;;;;37.92;17.33;;;;;;;-1.10;84.14;99926.88;3522238;28;20412;-49
2021/01/12 04:53:54;;;;;;;39.47;18.08;;;;;;;-1.09;84.41;99920.13;3522128;28;20466;-52
2021/01/12 04:55:35;;;;;;;38.85;17.30;;;;;;;-1.11;84.43;99917.47;3523502;28;20082;-50
2021/01/12 04:57:17;;;;;;;40.22;18.48;;;;;;;-1.11;84.57;99925.09;3521087;28;20401;-53
2021/01/12 04:58:59;;;;;;;38.38;18.35;;;;;;;-1.11;84.72;99916.59;3524323;28;20469;-51
2021/01/12 05:00:41;;;;;;;36.40;18.13;;;;;;;-1.12;85.33;99914.81;3521357;28;20420;-53
2021/01/12 05:02:22;;;;;;;43.53;18.88;;;;;;;-1.13;85.23;99915.63;3521260;28;20044;-49
2021/01/12 05:04:05;;;;;;;40.92;19.70;;;;;;;-1.13;85.74;99918.16;3524400;28;20051;-52
2021/01/12 05:05:47;;;;;;;40.60;18.60;;;;;;;-1.13;85.93;99916.50;3520911;28;20051;-52
2021/01/12 05:07:29;;;;;;;44.97;19.90;;;;;;;-1.13;85.88;99915.63;3521392;28;20047;-50
2021/01/12 05:09:10;;;;;;;41.42;18.27;;;;;;;-1.12;86.07;99919.91;3523570;28;20176;-52
2021/01/12 05:10:52;;;;;;;43.55;18.65;;;;;;;-1.12;85.94;99919.91;3520857;28;20523;-51
2021/01/12 05:12:35;;;;;;;38.20;19.00;;;;;;;-1.13;86.44;99923.25;3523694;28;20075;-51
2021/01/12 05:14:17;;;;;;;41.03;20.17;;;;;;;-1.13;86.60;99923.25;3521287;28;20051;-53
2021/01/12 05:16:05;;;;;;;41.63;19.52;;;;;;;-1.14;86.65;99919.81;3520665;28;20065;-52
2021/01/12 05:17:49;;;;;;;36.10;18.10;;;;;;;-1.14;86.67;99922.34;3524444;28;20052;-51
2021/01/12 05:19:33;;;;;;;40.70;18.90;;;;;;;-1.14;86.52;99918.94;3519234;28;20039;-49
2021/01/12 05:21:17;;;;;;;40.30;18.95;;;;;;;-1.15;86.80;99920.59;3520529;28;20047;-53
2021/01/12 05:23:06;;;;;;;46.13;20.38;;;;;;;-1.14;87.23;99921.47;3524366;28;20084;-52
2021/01/12 05:24:49;;;;;;;42.30;19.15;;;;;;;-1.13;86.96;99923.25;3521872;28;20043;-51
2021/01/12 05:26:36;;;;;;;44.15;20.48;;;;;;;-1.13;87.46;99921.59;3521766;28;20052;-54
2021/01/12 05:28:19;;;;;;;39.63;19.25;;;;;;;-1.14;87.38;99922.34;3510084;28;20049;-51
2021/01/12 05:30:03;;;;;;;48.50;20.95;;;;;;;-1.15;87.79;99920.59;3517863;28;20051;-49
2021/01/12 05:31:46;;;;;;;44.85;20.20;;;;;;;-1.15;87.61;99923.16;3516158;28;20050;-52
2021/01/12 05:33:28;;;;;;;50.42;23.15;;;;;;;-1.15;87.49;99922.28;3523608;28;20112;-52
2021/01/12 05:35:14;;;;;;;46.05;21.40;;;;;;;-1.16;87.53;99926.47;3519465;28;20054;-49
2021/01/12 05:36:56;;;;;;;43.63;19.25;;;;;;;-1.17;87.93;99927.28;3523417;28;20564;-49
2021/01/12 05:38:38;;;;;;;45.03;20.52;;;;;;;-1.16;88.14;99930.69;3521260;28;20469;-53
2021/01/12 05:40:24;;;;;;;47.90;20.38;;;;;;;-1.18;87.88;99920.41;3519521;28;20535;-50
2021/01/12 05:42:07;;;;;;;40.60;18.88;;;;;;;-1.17;87.91;99924.72;3524021;28;20109;-51
2021/01/12 05:43:49;;;;;;;44.30;20.45;;;;;;;-1.17;88.05;99923.81;3520410;28;20526;-49
2021/01/12 05:45:33;;;;;;;49.42;21.55;;;;;;;-1.17;88.15;99919.63;3519649;28;20040;-52
2021/01/12 05:47:16;;;;;;;49.05;21.15;;;;;;;-1.17;88.23;99924.72;3520823;28;20454;-51
2021/01/12 05:48:59;;;;;;;40.80;19.20;;;;;;;-1.15;88.19;99929.91;3515778;28;20138;-51
2021/01/12 05:50:41;;;;;;;46.30;21.85;;;;;;;-1.16;88.05;99928.13;3514250;28;20101;-52
2021/01/12 05:52:25;;;;;;;45.85;20.73;;;;;;;-1.16;87.85;99928.13;3517540;28;20050;-53
2021/01/12 05:54:09;;;;;;;;;;;;;;;-1.16;87.81;99930.69;3515554;28;20051;-52
2021/01/12 05:55:57;;;;;;;42.67;18.65;;;;;;;-1.16;88.01;99931.56;3516337;28;19930;-50
2021/01/12 05:57:39;;;;;;;50.97;21.10;;;;;;;-1.17;87.84;99928.91;3516952;28;20267;-50
2021/01/12 05:59:25;;;;;;;43.97;20.17;;;;;;;-1.17;88.23;99934.00;3512231;28;20044;-52
2021/01/12 06:01:08;;;;;;;45.30;19.27;;;;;;;-1.18;88.23;99928.03;3509156;28;20048;-50
2021/01/12 06:02:53;;;;;;;43.67;19.42;;;;;;;-1.19;88.23;99940.66;3514555;28;20059;-52
2021/01/12 06:04:35;;;;;;;40.33;18.35;;;;;;;-1.20;87.97;99937.25;3513905;28;20054;-48
2021/01/12 06:06:19;;;;;;;43.70;19.15;;;;;;;-1.21;88.02;99937.16;3516520;28;20047;-53
2021/01/12 06:08:00;;;;;;;40.80;18.92;;;;;;;-1.21;87.80;99940.56;3517190;28;20164;-51
2021/01/12 06:09:44;;;;;;;42.20;19.25;;;;;;;-1.22;87.74;99936.28;3515919;28;20051;-50
2021/01/12 06:11:31;;;;;;;37.63;17.65;;;;;;;-1.21;87.52;99942.22;3515765;28;20044;-45
2021/01/12 06:13:14;;;;;;;41.50;18.17;;;;;;;-1.22;87.31;99935.38;3514479;28;20048;-45
2021/01/12 06:14:59;;;;;;;40.05;18.20;;;;;;;-1.23;87.19;99943.81;3514169;28;20134;-50
2021/01/12 06:16:41;;;;;;;;;;;;;;;-1.23;87.23;99939.59;3516354;28;20047;-51
2021/01/12 06:18:34;;;;;;;35.72;16.30;;;;;;;-1.22;86.75;99943.00;3515718;28;20312;-53
2021/01/12 06:20:17;;;;;;;37.63;17.60;;;;;;;-1.24;86.58;99948.03;3514680;28;20220;-52
2021/01/12 06:22:17;;;;;;;33.55;15.90;;;;;;;-1.24;86.23;99937.84;3519042;28;20473;-53
2021/01/12 06:24:00;;;;;;;32.13;15.18;;;;;;;-1.23;86.20;99943.81;3517696;28;20052;-51
2021/01/12 06:25:44;;;;;;;35.10;15.80;;;;;;;-1.23;85.70;99943.81;3517760;28;20055;-52
2021/01/12 06:27:29;;;;;;;34.67;14.95;;;;;;;-1.25;84.65;99936.06;3518470;28;20055;-50
2021/01/12 06:29:10;;;;;;;33.05;15.30;;;;;;;-1.26;84.83;99939.38;3517400;28;20420;-49
2021/01/12 06:30:53;;;;;;;32.13;13.85;;;;;;;-1.26;84.80;99938.50;3515657;28;20426;-49
2021/01/12 06:32:36;;;;;;;33.30;14.75;;;;;;;-1.26;84.71;99934.28;3516767;28;20052;-49
2021/01/12 06:34:19;;;;;;;31.60;14.25;;;;;;;-1.26;84.85;99935.97;3517678;28;20135;-52
2021/01/12 06:36:02;;;;;;;31.23;14.13;;;;;;;-1.24;84.90;99936.94;3515582;28;20393;-53
2021/01/12 06:37:46;;;;;;;29.27;14.35;;;;;;;-1.24;83.78;99934.38;3518089;28;20055;-51
2021/01/12 06:39:28;;;;;;;;;;;;;;;-1.24;83.92;99942.03;3516433;28;20039;-47
2021/01/12 06:41:10;;;;;;;31.65;13.93;;;;;;;-1.26;83.76;99933.41;3515826;28;19935;-49
2021/01/12 06:42:58;;;;;;;31.92;14.25;;;;;;;-1.25;84.18;99935.19;3517021;28;20409;-52
2021/01/12 06:44:40;;;;;;;35.15;16.20;;;;;;;-1.25;83.81;99925.00;3517635;28;20076;-48
2021/01/12 06:46:24;;;;;;;32.88;13.63;;;;;;;-1.25;83.86;99930.09;3516806;28;20055;-52
2021/01/12 06:48:13;;;;;;;29.38;13.77;;;;;;;-1.29;83.25;99927.34;3518608;28;20039;-52
2021/01/12 06:50:07;;;;;;;28.50;12.63;;;;;;;-1.29;83.33;99927.34;3515637;28;20134;-53
2021/01/12 06:51:55;;;;;;;28.33;13.20;;;;;;;-1.28;83.76;99925.69;3515947;28;20051;-51
2021/01/12 06:53:44;;;;;;;26.77;12.80;;;;;;;-1.30;83.23;99923.03;3515667;28;20060;-52
2021/01/12 06:55:26;;;;;;;31.23;13.57;;;;;;;-1.30;83.24;99933.22;3522517;28;20048;-51
2021/01/12 06:57:09;;;;;;;26.20;13.48;;;;;;;-1.30;83.17;99923.03;3516320;28;20039;-52
2021/01/12 06:58:50;;;;;;;28.92;13.52;;;;;;;-1.28;83.26;99925.69;3510324;28;20060;-47
2021/01/12 07:00:34;;;;;;;31.30;13.77;;;;;;;-1.27;83.11;99918.94;3519475;28;20050;-52
2021/01/12 07:02:20;;;;;;;27.00;12.30;;;;;;;-1.27;83.18;99924.91;3519358;28;20048;-51
2021/01/12 07:04:04;;;;;;;29.63;12.25;;;;;;;-1.26;83.45;99920.69;3524594;28;20051;-49
2021/01/12 07:05:46;;;;;;;25.75;12.52;;;;;;;-1.25;83.51;99917.38;3511232;28;20581;-52
2021/01/12 07:07:29;;;;;;;29.58;12.65;;;;;;;-1.25;83.18;99914.84;3514777;28;20127;-48
2021/01/12 07:09:11;;;;;;;31.08;13.57;;;;;;;-1.26;83.08;99913.06;3525175;28;20051;-47
2021/01/12 07:10:52;;;;;;;29.40;13.65;;;;;;;-1.26;83.64;99918.16;3521972;28;20079;-50
2021/01/12 07:12:34;;;;;;;30.50;13.77;;;;;;;-1.26;83.60;99916.47;3517776;28;20409;-49
2021/01/12 07:14:24;;;;;;;28.67;13.20;;;;;;;-1.24;83.92;99917.47;3516156;28;20389;-45
2021/01/12 07:16:14;;;;;;;26.67;12.40;;;;;;;-1.24;83.58;99912.38;3516131;28;20051;-48
2021/01/12 07:17:56;;;;;;;31.17;13.23;;;;;;;-1.23;83.58;99915.81;3519329;28;20051;-50
2021/01/12 07:19:38;;;;;;;30.08;13.93;;;;;;;-1.25;83.54;99915.69;3518780;28;20050;-50
2021/01/12 07:21:28;;;;;;;27.27;12.55;;;;;;;-1.26;83.54;99911.38;3511888;28;20117;-50
2021/01/12 07:23:11;;;;;;;25.85;12.32;;;;;;;-1.27;83.01;99908.78;3514095;28;20109;-51
2021/01/12 07:24:54;;;;;;;27.52;11.95;;;;;;;-1.26;83.19;99910.50;3517712;28;20137;-51
2021/01/12 07:26:38;;;;;;;24.40;11.10;;;;;;;-1.29;82.29;99909.53;3512939;28;20496;-50
2021/01/12 07:28:20;;;;;;;;;;;;;;;-1.29;82.22;99911.22;3514533;28;20106;-49
2021/01/12 07:30:06;;;;;;;31.60;11.45;;;;;;;-1.29;82.23;99906.13;3515138;28;19924;-49
2021/01/12 07:31:48;;;;;;;25.20;11.57;;;;;;;-1.29;82.22;99899.34;3512026;28;20043;-50
2021/01/12 07:33:30;;;;;;;24.05;10.88;;;;;;;-1.27;82.32;99906.22;3513512;28;20531;-51
2021/01/12 07:35:12;;;;;;;22.30;11.25;;;;;;;-1.25;82.50;99899.56;3516973;28;20040;-50
2021/01/12 07:36:55;;;;;;;24.52;11.48;;;;;;;-1.24;82.09;99898.75;3517160;28;20138;-48
2021/01/12 07:38:37;;;;;;;21.50;10.43;;;;;;;-1.23;82.30;99896.31;3512998;28;20161;-51
2021/01/12 07:40:19;;;;;;;29.45;13.23;;;;;;;-1.23;82.23;99900.53;3518449;28;20130;-52
2021/01/12 07:42:01;;;;;;;27.77;12.43;;;;;;;-1.22;82.52;99897.19;3515507;28;20048;-51
2021/01/12 07:43:43;;;;;;;28.60;12.75;;;;;;;-1.20;82.74;99898.19;3516682;28;20138;-50
2021/01/12 07:45:45;;;;;;;28.40;14.07;;;;;;;-1.21;82.87;99897.28;3515069;28;20424;-51
2021/01/12 07:47:27;;;;;;;27.80;12.65;;;;;;;-1.20;82.97;99895.66;3515043;28;20051;-52
2021/01/12 07:49:12;;;;;;;28.75;12.48;;;;;;;-1.20;83.14;99895.66;3511718;28;20127;-48
2021/01/12 07:50:54;;;;;;;26.60;12.65;;;;;;;-1.20;83.17;99896.53;3516011;28;20043;-49
2021/01/12 07:52:36;;;;;;;32.60;13.18;;;;;;;-1.19;82.98;99898.31;3519108;28;20051;-51
2021/01/12 07:54:23;;;;;;;27.52;13.18;;;;;;;-1.20;82.52;99896.53;3521878;28;20059;-51